sensor_id;sensor_type;location;lat;lon;timestamp;P1;durP1;ratioP1;P2;durP2;ratioP2
21018;SDS011;10667;51.056;3.732;2022-08-21T00:02:13;8.88;;;3.45;;
21018;SDS011;10667;51.056;3.732;2022-08-21T00:04:40;6.75;;;2.75;;
21018;SDS011;10667;51.056;3.732;2022-08-21T00:07:05;12.48;;;3.40;;
21018;SDS011;10667;51.056;3.732;2022-08-21T00:09:31;12.00;;;3.67;;
21018;SDS011;10667;51.056;3.732;2022-08-21T00:11:57;12.43;;;3.22;;
21018;SDS011;10667;51.056;3.732;2022-08-21T00:14:22;12.20;;;2.75;;
21018;SDS011;10667;51.056;3.732;2022-08-21T00:16:48;12.15;;;3.22;;
21018;SDS011;10667;51.056;3.732;2022-08-21T00:19:14;12.65;;;2.50;;
21018;SDS011;10667;51.056;3.732;2022-08-21T00:21:40;10.02;;;2.83;;
21018;SDS011;10667;51.056;3.732;2022-08-21T00:24:06;7.88;;;2.50;;
21018;SDS011;10667;51.056;3.732;2022-08-21T00:26:31;8.02;;;2.55;;
21018;SDS011;10667;51.056;3.732;2022-08-21T00:28:57;12.20;;;2.65;;
21018;SDS011;10667;51.056;3.732;2022-08-21T00:31:23;8.45;;;2.53;;
21018;SDS011;10667;51.056;3.732;2022-08-21T00:33:49;6.97;;;2.60;;
21018;SDS011;10667;51.056;3.732;2022-08-21T00:36:14;6.03;;;2.67;;
21018;SDS011;10667;51.056;3.732;2022-08-21T00:38:40;7.03;;;2.90;;
21018;SDS011;10667;51.056;3.732;2022-08-21T00:41:07;8.27;;;2.70;;
21018;SDS011;10667;51.056;3.732;2022-08-21T00:43:36;9.15;;;3.03;;
21018;SDS011;10667;51.056;3.732;2022-08-21T00:46:03;8.38;;;2.95;;
21018;SDS011;10667;51.056;3.732;2022-08-21T00:48:30;9.20;;;3.20;;
21018;SDS011;10667;51.056;3.732;2022-08-21T00:51:06;6.15;;;2.60;;
21018;SDS011;10667;51.056;3.732;2022-08-21T00:53:38;9.50;;;2.70;;
21018;SDS011;10667;51.056;3.732;2022-08-21T00:56:09;9.25;;;2.80;;
21018;SDS011;10667;51.056;3.732;2022-08-21T00:58:37;9.52;;;3.08;;
21018;SDS011;10667;51.056;3.732;2022-08-21T01:01:07;7.88;;;2.70;;
21018;SDS011;10667;51.056;3.732;2022-08-21T01:03:33;8.18;;;2.45;;
21018;SDS011;10667;51.056;3.732;2022-08-21T01:06:00;8.98;;;2.70;;
21018;SDS011;10667;51.056;3.732;2022-08-21T01:08:29;13.25;;;2.92;;
21018;SDS011;10667;51.056;3.732;2022-08-21T01:10:56;11.88;;;2.80;;
21018;SDS011;10667;51.056;3.732;2022-08-21T01:13:24;9.15;;;2.60;;
21018;SDS011;10667;51.056;3.732;2022-08-21T01:15:52;8.32;;;2.53;;
21018;SDS011;10667;51.056;3.732;2022-08-21T01:18:22;9.52;;;2.78;;
21018;SDS011;10667;51.056;3.732;2022-08-21T01:21:02;10.82;;;2.85;;
21018;SDS011;10667;51.056;3.732;2022-08-21T01:23:33;9.23;;;2.97;;
21018;SDS011;10667;51.056;3.732;2022-08-21T01:26:00;12.00;;;2.90;;
21018;SDS011;10667;51.056;3.732;2022-08-21T01:28:26;7.97;;;2.45;;
21018;SDS011;10667;51.056;3.732;2022-08-21T01:30:55;5.72;;;2.40;;
21018;SDS011;10667;51.056;3.732;2022-08-21T01:33:22;9.18;;;2.55;;
21018;SDS011;10667;51.056;3.732;2022-08-21T01:35:50;10.00;;;2.72;;
21018;SDS011;10667;51.056;3.732;2022-08-21T01:38:16;13.40;;;3.20;;
21018;SDS011;10667;51.056;3.732;2022-08-21T01:40:42;9.05;;;3.00;;
21018;SDS011;10667;51.056;3.732;2022-08-21T01:43:08;11.23;;;3.00;;
21018;SDS011;10667;51.056;3.732;2022-08-21T01:45:35;8.63;;;3.40;;
21018;SDS011;10667;51.056;3.732;2022-08-21T01:48:00;9.13;;;2.95;;
21018;SDS011;10667;51.056;3.732;2022-08-21T01:50:27;10.05;;;2.85;;
21018;SDS011;10667;51.056;3.732;2022-08-21T01:52:53;14.05;;;3.60;;
21018;SDS011;10667;51.056;3.732;2022-08-21T01:55:19;8.35;;;2.90;;
21018;SDS011;10667;51.056;3.732;2022-08-21T01:57:46;10.88;;;2.50;;
21018;SDS011;10667;51.056;3.732;2022-08-21T02:00:13;12.93;;;3.33;;
21018;SDS011;10667;51.056;3.732;2022-08-21T02:02:41;9.15;;;2.95;;
21018;SDS011;10667;51.056;3.732;2022-08-21T02:05:08;13.70;;;3.40;;
21018;SDS011;10667;51.056;3.732;2022-08-21T02:07:39;12.93;;;4.05;;
21018;SDS011;10667;51.056;3.732;2022-08-21T02:10:07;12.05;;;3.22;;
21018;SDS011;10667;51.056;3.732;2022-08-21T02:12:35;6.95;;;2.63;;
21018;SDS011;10667;51.056;3.732;2022-08-21T02:15:01;11.13;;;2.97;;
21018;SDS011;10667;51.056;3.732;2022-08-21T02:17:36;10.95;;;3.08;;
21018;SDS011;10667;51.056;3.732;2022-08-21T02:20:06;10.55;;;3.38;;
21018;SDS011;10667;51.056;3.732;2022-08-21T02:22:33;10.38;;;3.10;;
21018;SDS011;10667;51.056;3.732;2022-08-21T02:24:59;10.98;;;3.40;;
21018;SDS011;10667;51.056;3.732;2022-08-21T02:27:24;12.32;;;3.13;;
21018;SDS011;10667;51.056;3.732;2022-08-21T02:29:50;8.63;;;2.53;;
21018;SDS011;10667;51.056;3.732;2022-08-21T02:32:16;14.75;;;3.22;;
21018;SDS011;10667;51.056;3.732;2022-08-21T02:34:42;8.65;;;3.03;;
21018;SDS011;10667;51.056;3.732;2022-08-21T02:37:07;8.70;;;2.97;;
21018;SDS011;10667;51.056;3.732;2022-08-21T02:39:33;9.13;;;2.88;;
21018;SDS011;10667;51.056;3.732;2022-08-21T02:41:59;7.18;;;2.40;;
21018;SDS011;10667;51.056;3.732;2022-08-21T02:44:25;8.88;;;2.97;;
21018;SDS011;10667;51.056;3.732;2022-08-21T02:46:50;11.80;;;2.78;;
21018;SDS011;10667;51.056;3.732;2022-08-21T02:49:16;8.82;;;2.65;;
21018;SDS011;10667;51.056;3.732;2022-08-21T02:51:42;8.73;;;3.25;;
21018;SDS011;10667;51.056;3.732;2022-08-21T02:54:08;11.43;;;2.83;;
21018;SDS011;10667;51.056;3.732;2022-08-21T02:56:33;14.25;;;3.38;;
21018;SDS011;10667;51.056;3.732;2022-08-21T02:58:59;8.63;;;2.97;;
21018;SDS011;10667;51.056;3.732;2022-08-21T03:01:25;9.45;;;3.05;;
21018;SDS011;10667;51.056;3.732;2022-08-21T03:03:51;7.95;;;2.85;;
21018;SDS011;10667;51.056;3.732;2022-08-21T03:06:17;9.75;;;3.20;;
21018;SDS011;10667;51.056;3.732;2022-08-21T03:08:44;9.80;;;2.97;;
21018;SDS011;10667;51.056;3.732;2022-08-21T03:11:11;7.00;;;2.85;;
21018;SDS011;10667;51.056;3.732;2022-08-21T03:13:37;10.88;;;2.72;;
21018;SDS011;10667;51.056;3.732;2022-08-21T03:16:04;12.13;;;3.03;;
21018;SDS011;10667;51.056;3.732;2022-08-21T03:18:30;10.27;;;2.80;;
21018;SDS011;10667;51.056;3.732;2022-08-21T03:20:56;14.77;;;3.38;;
21018;SDS011;10667;51.056;3.732;2022-08-21T03:23:22;11.35;;;3.13;;
21018;SDS011;10667;51.056;3.732;2022-08-21T03:25:48;9.82;;;3.08;;
21018;SDS011;10667;51.056;3.732;2022-08-21T03:28:17;7.82;;;2.92;;
21018;SDS011;10667;51.056;3.732;2022-08-21T03:30:46;10.70;;;3.35;;
21018;SDS011;10667;51.056;3.732;2022-08-21T03:33:14;14.18;;;2.63;;
21018;SDS011;10667;51.056;3.732;2022-08-21T03:35:40;7.90;;;2.95;;
21018;SDS011;10667;51.056;3.732;2022-08-21T03:38:11;10.57;;;4.13;;
21018;SDS011;10667;51.056;3.732;2022-08-21T03:40:38;10.95;;;2.97;;
21018;SDS011;10667;51.056;3.732;2022-08-21T03:43:04;9.73;;;3.20;;
21018;SDS011;10667;51.056;3.732;2022-08-21T03:45:29;7.80;;;3.17;;
21018;SDS011;10667;51.056;3.732;2022-08-21T03:47:56;7.88;;;3.00;;
21018;SDS011;10667;51.056;3.732;2022-08-21T03:50:24;11.15;;;3.45;;
21018;SDS011;10667;51.056;3.732;2022-08-21T03:52:51;12.50;;;3.55;;
21018;SDS011;10667;51.056;3.732;2022-08-21T03:55:17;7.82;;;3.03;;
21018;SDS011;10667;51.056;3.732;2022-08-21T03:57:43;9.85;;;3.13;;
21018;SDS011;10667;51.056;3.732;2022-08-21T04:00:09;12.98;;;4.00;;
21018;SDS011;10667;51.056;3.732;2022-08-21T04:02:37;8.70;;;2.92;;
21018;SDS011;10667;51.056;3.732;2022-08-21T04:05:03;10.15;;;3.58;;
21018;SDS011;10667;51.056;3.732;2022-08-21T04:07:31;12.80;;;3.75;;
21018;SDS011;10667;51.056;3.732;2022-08-21T04:09:56;10.30;;;3.83;;
21018;SDS011;10667;51.056;3.732;2022-08-21T04:12:22;11.20;;;3.50;;
21018;SDS011;10667;51.056;3.732;2022-08-21T04:14:48;9.82;;;3.40;;
21018;SDS011;10667;51.056;3.732;2022-08-21T04:17:16;14.32;;;3.28;;
21018;SDS011;10667;51.056;3.732;2022-08-21T04:19:43;10.63;;;3.00;;
21018;SDS011;10667;51.056;3.732;2022-08-21T04:22:09;11.45;;;3.25;;
21018;SDS011;10667;51.056;3.732;2022-08-21T04:24:35;8.85;;;3.38;;
21018;SDS011;10667;51.056;3.732;2022-08-21T04:27:01;8.68;;;3.25;;
21018;SDS011;10667;51.056;3.732;2022-08-21T04:29:26;9.15;;;3.63;;
21018;SDS011;10667;51.056;3.732;2022-08-21T04:31:52;9.80;;;3.22;;
21018;SDS011;10667;51.056;3.732;2022-08-21T04:34:18;7.60;;;3.28;;
21018;SDS011;10667;51.056;3.732;2022-08-21T04:36:44;11.80;;;3.33;;
21018;SDS011;10667;51.056;3.732;2022-08-21T04:39:10;9.20;;;3.90;;
21018;SDS011;10667;51.056;3.732;2022-08-21T04:41:35;10.45;;;4.03;;
21018;SDS011;10667;51.056;3.732;2022-08-21T04:44:02;11.18;;;3.70;;
21018;SDS011;10667;51.056;3.732;2022-08-21T04:46:28;11.27;;;3.60;;
21018;SDS011;10667;51.056;3.732;2022-08-21T04:48:54;9.40;;;3.08;;
21018;SDS011;10667;51.056;3.732;2022-08-21T04:51:24;15.07;;;3.72;;
21018;SDS011;10667;51.056;3.732;2022-08-21T04:53:55;11.20;;;3.55;;
21018;SDS011;10667;51.056;3.732;2022-08-21T04:56:27;11.80;;;3.85;;
21018;SDS011;10667;51.056;3.732;2022-08-21T04:58:57;7.25;;;3.28;;
21018;SDS011;10667;51.056;3.732;2022-08-21T05:01:28;10.35;;;3.60;;
21018;SDS011;10667;51.056;3.732;2022-08-21T05:03:57;8.90;;;3.20;;
21018;SDS011;10667;51.056;3.732;2022-08-21T05:06:24;11.82;;;3.40;;
21018;SDS011;10667;51.056;3.732;2022-08-21T05:08:52;11.07;;;3.53;;
21018;SDS011;10667;51.056;3.732;2022-08-21T05:11:20;12.60;;;4.07;;
21018;SDS011;10667;51.056;3.732;2022-08-21T05:13:47;8.30;;;3.28;;
21018;SDS011;10667;51.056;3.732;2022-08-21T05:16:13;8.68;;;3.58;;
21018;SDS011;10667;51.056;3.732;2022-08-21T05:18:40;16.75;;;3.95;;
21018;SDS011;10667;51.056;3.732;2022-08-21T05:21:06;10.07;;;3.58;;
21018;SDS011;10667;51.056;3.732;2022-08-21T05:23:32;11.68;;;3.95;;
21018;SDS011;10667;51.056;3.732;2022-08-21T05:25:58;10.18;;;3.22;;
21018;SDS011;10667;51.056;3.732;2022-08-21T05:28:25;13.60;;;3.97;;
21018;SDS011;10667;51.056;3.732;2022-08-21T05:30:51;9.70;;;3.78;;
21018;SDS011;10667;51.056;3.732;2022-08-21T05:33:18;11.23;;;3.35;;
21018;SDS011;10667;51.056;3.732;2022-08-21T05:35:43;14.35;;;3.67;;
21018;SDS011;10667;51.056;3.732;2022-08-21T05:38:09;19.98;;;3.92;;
21018;SDS011;10667;51.056;3.732;2022-08-21T05:40:35;12.68;;;3.83;;
21018;SDS011;10667;51.056;3.732;2022-08-21T05:43:01;7.95;;;3.17;;
21018;SDS011;10667;51.056;3.732;2022-08-21T05:45:29;12.57;;;3.55;;
21018;SDS011;10667;51.056;3.732;2022-08-21T05:47:56;12.60;;;3.90;;
21018;SDS011;10667;51.056;3.732;2022-08-21T05:50:22;11.55;;;3.92;;
21018;SDS011;10667;51.056;3.732;2022-08-21T05:52:48;12.55;;;3.80;;
21018;SDS011;10667;51.056;3.732;2022-08-21T05:55:13;12.82;;;3.78;;
21018;SDS011;10667;51.056;3.732;2022-08-21T05:57:39;10.52;;;4.32;;
21018;SDS011;10667;51.056;3.732;2022-08-21T06:00:08;9.30;;;3.78;;
21018;SDS011;10667;51.056;3.732;2022-08-21T06:02:37;14.13;;;4.35;;
21018;SDS011;10667;51.056;3.732;2022-08-21T06:05:03;14.38;;;3.88;;
21018;SDS011;10667;51.056;3.732;2022-08-21T06:07:29;15.98;;;4.00;;
21018;SDS011;10667;51.056;3.732;2022-08-21T06:09:54;12.30;;;4.15;;
21018;SDS011;10667;51.056;3.732;2022-08-21T06:12:20;12.00;;;4.28;;
21018;SDS011;10667;51.056;3.732;2022-08-21T06:14:46;15.00;;;3.80;;
21018;SDS011;10667;51.056;3.732;2022-08-21T06:17:12;10.90;;;3.85;;
21018;SDS011;10667;51.056;3.732;2022-08-21T06:19:39;10.77;;;3.83;;
21018;SDS011;10667;51.056;3.732;2022-08-21T06:22:05;12.90;;;3.90;;
21018;SDS011;10667;51.056;3.732;2022-08-21T06:24:31;9.55;;;3.40;;
21018;SDS011;10667;51.056;3.732;2022-08-21T06:26:57;10.90;;;3.60;;
21018;SDS011;10667;51.056;3.732;2022-08-21T06:29:28;14.55;;;4.07;;
21018;SDS011;10667;51.056;3.732;2022-08-21T06:31:54;12.18;;;4.47;;
21018;SDS011;10667;51.056;3.732;2022-08-21T06:34:19;10.55;;;3.65;;
21018;SDS011;10667;51.056;3.732;2022-08-21T06:36:45;8.60;;;3.80;;
21018;SDS011;10667;51.056;3.732;2022-08-21T06:39:11;13.88;;;4.00;;
21018;SDS011;10667;51.056;3.732;2022-08-21T06:41:38;13.15;;;4.72;;
21018;SDS011;10667;51.056;3.732;2022-08-21T06:44:04;7.38;;;3.25;;
21018;SDS011;10667;51.056;3.732;2022-08-21T06:46:29;7.93;;;3.50;;
21018;SDS011;10667;51.056;3.732;2022-08-21T06:48:55;10.55;;;3.53;;
21018;SDS011;10667;51.056;3.732;2022-08-21T06:51:22;10.00;;;3.90;;
21018;SDS011;10667;51.056;3.732;2022-08-21T06:53:48;12.00;;;4.60;;
21018;SDS011;10667;51.056;3.732;2022-08-21T06:56:14;11.65;;;4.05;;
21018;SDS011;10667;51.056;3.732;2022-08-21T06:58:40;8.38;;;3.88;;
21018;SDS011;10667;51.056;3.732;2022-08-21T07:01:06;15.82;;;4.53;;
21018;SDS011;10667;51.056;3.732;2022-08-21T07:03:33;13.85;;;4.07;;
21018;SDS011;10667;51.056;3.732;2022-08-21T07:06:01;11.52;;;3.78;;
21018;SDS011;10667;51.056;3.732;2022-08-21T07:08:29;14.90;;;4.18;;
21018;SDS011;10667;51.056;3.732;2022-08-21T07:10:55;16.42;;;4.47;;
21018;SDS011;10667;51.056;3.732;2022-08-21T07:13:22;11.07;;;3.78;;
21018;SDS011;10667;51.056;3.732;2022-08-21T07:15:48;12.70;;;4.57;;
21018;SDS011;10667;51.056;3.732;2022-08-21T07:18:14;15.27;;;4.20;;
21018;SDS011;10667;51.056;3.732;2022-08-21T07:20:40;9.15;;;3.13;;
21018;SDS011;10667;51.056;3.732;2022-08-21T07:23:11;11.43;;;4.00;;
21018;SDS011;10667;51.056;3.732;2022-08-21T07:25:46;12.40;;;3.67;;
21018;SDS011;10667;51.056;3.732;2022-08-21T07:28:12;11.15;;;3.45;;
21018;SDS011;10667;51.056;3.732;2022-08-21T07:30:37;10.70;;;3.83;;
21018;SDS011;10667;51.056;3.732;2022-08-21T07:33:03;9.20;;;3.60;;
21018;SDS011;10667;51.056;3.732;2022-08-21T07:35:29;13.85;;;3.75;;
21018;SDS011;10667;51.056;3.732;2022-08-21T07:37:56;10.55;;;2.85;;
21018;SDS011;10667;51.056;3.732;2022-08-21T07:40:22;16.25;;;3.55;;
21018;SDS011;10667;51.056;3.732;2022-08-21T07:42:48;16.00;;;4.03;;
21018;SDS011;10667;51.056;3.732;2022-08-21T07:45:15;15.30;;;3.22;;
21018;SDS011;10667;51.056;3.732;2022-08-21T07:47:41;10.40;;;3.22;;
21018;SDS011;10667;51.056;3.732;2022-08-21T07:50:06;12.75;;;3.10;;
21018;SDS011;10667;51.056;3.732;2022-08-21T07:52:32;10.63;;;2.92;;
21018;SDS011;10667;51.056;3.732;2022-08-21T07:54:59;11.38;;;3.00;;
21018;SDS011;10667;51.056;3.732;2022-08-21T07:57:24;13.23;;;3.70;;
21018;SDS011;10667;51.056;3.732;2022-08-21T07:59:50;14.07;;;3.47;;
21018;SDS011;10667;51.056;3.732;2022-08-21T08:02:26;9.07;;;3.28;;
21018;SDS011;10667;51.056;3.732;2022-08-21T08:04:53;13.50;;;3.50;;
21018;SDS011;10667;51.056;3.732;2022-08-21T08:07:22;10.63;;;3.20;;
21018;SDS011;10667;51.056;3.732;2022-08-21T08:09:48;9.90;;;3.55;;
21018;SDS011;10667;51.056;3.732;2022-08-21T08:12:14;8.32;;;2.90;;
21018;SDS011;10667;51.056;3.732;2022-08-21T08:14:39;13.13;;;3.15;;
21018;SDS011;10667;51.056;3.732;2022-08-21T08:17:05;14.07;;;3.53;;
21018;SDS011;10667;51.056;3.732;2022-08-21T08:19:30;12.55;;;3.13;;
21018;SDS011;10667;51.056;3.732;2022-08-21T08:21:56;9.40;;;3.25;;
21018;SDS011;10667;51.056;3.732;2022-08-21T08:24:22;11.38;;;3.63;;
21018;SDS011;10667;51.056;3.732;2022-08-21T08:26:47;13.55;;;3.95;;
21018;SDS011;10667;51.056;3.732;2022-08-21T08:29:13;14.68;;;4.30;;
21018;SDS011;10667;51.056;3.732;2022-08-21T08:31:39;14.80;;;4.45;;
21018;SDS011;10667;51.056;3.732;2022-08-21T08:34:05;11.82;;;3.70;;
21018;SDS011;10667;51.056;3.732;2022-08-21T08:36:34;10.65;;;4.30;;
21018;SDS011;10667;51.056;3.732;2022-08-21T08:39:02;16.52;;;3.63;;
21018;SDS011;10667;51.056;3.732;2022-08-21T08:41:29;12.60;;;4.10;;
21018;SDS011;10667;51.056;3.732;2022-08-21T08:44:06;12.75;;;4.25;;
21018;SDS011;10667;51.056;3.732;2022-08-21T08:46:35;11.63;;;3.58;;
21018;SDS011;10667;51.056;3.732;2022-08-21T08:57:01;13.73;;;3.97;;
21018;SDS011;10667;51.056;3.732;2022-08-21T08:59:39;6.50;;;2.80;;
21018;SDS011;10667;51.056;3.732;2022-08-21T09:02:08;12.68;;;4.00;;
21018;SDS011;10667;51.056;3.732;2022-08-21T09:04:38;12.73;;;3.47;;
21018;SDS011;10667;51.056;3.732;2022-08-21T09:10:10;15.48;;;3.40;;
21018;SDS011;10667;51.056;3.732;2022-08-21T09:15:32;15.02;;;3.50;;
21018;SDS011;10667;51.056;3.732;2022-08-21T09:21:18;9.93;;;3.10;;
21018;SDS011;10667;51.056;3.732;2022-08-21T09:27:18;14.35;;;2.63;;
21018;SDS011;10667;51.056;3.732;2022-08-21T09:29:47;7.53;;;2.42;;
21018;SDS011;10667;51.056;3.732;2022-08-21T09:37:28;12.50;;;3.00;;
21018;SDS011;10667;51.056;3.732;2022-08-21T09:39:56;10.35;;;2.80;;
21018;SDS011;10667;51.056;3.732;2022-08-21T09:42:32;11.73;;;3.05;;
21018;SDS011;10667;51.056;3.732;2022-08-21T09:45:15;14.80;;;3.22;;
21018;SDS011;10667;51.056;3.732;2022-08-21T09:47:43;13.05;;;3.03;;
21018;SDS011;10667;51.056;3.732;2022-08-21T09:50:20;19.65;;;3.00;;
21018;SDS011;10667;51.056;3.732;2022-08-21T09:52:49;7.60;;;2.08;;
21018;SDS011;10667;51.056;3.732;2022-08-21T09:55:33;13.27;;;2.92;;
21018;SDS011;10667;51.056;3.732;2022-08-21T09:58:29;15.25;;;3.58;;
21018;SDS011;10667;51.056;3.732;2022-08-21T10:00:57;11.32;;;2.70;;
21018;SDS011;10667;51.056;3.732;2022-08-21T10:03:24;11.30;;;2.58;;
21018;SDS011;10667;51.056;3.732;2022-08-21T10:05:58;10.15;;;2.53;;
21018;SDS011;10667;51.056;3.732;2022-08-21T10:08:25;13.35;;;2.67;;
21018;SDS011;10667;51.056;3.732;2022-08-21T10:10:57;15.80;;;2.55;;
21018;SDS011;10667;51.056;3.732;2022-08-21T10:16:27;11.88;;;2.10;;
21018;SDS011;10667;51.056;3.732;2022-08-21T10:27:37;5.93;;;1.98;;
21018;SDS011;10667;51.056;3.732;2022-08-21T10:30:19;12.77;;;2.78;;
21018;SDS011;10667;51.056;3.732;2022-08-21T10:33:01;9.13;;;2.22;;
21018;SDS011;10667;51.056;3.732;2022-08-21T10:35:29;11.07;;;2.97;;
21018;SDS011;10667;51.056;3.732;2022-08-21T10:44:15;8.73;;;2.63;;
21018;SDS011;10667;51.056;3.732;2022-08-21T10:48:08;7.55;;;2.28;;
21018;SDS011;10667;51.056;3.732;2022-08-21T10:56:02;12.15;;;2.30;;
21018;SDS011;10667;51.056;3.732;2022-08-21T11:02:15;7.32;;;2.05;;
21018;SDS011;10667;51.056;3.732;2022-08-21T11:04:52;13.95;;;2.30;;
21018;SDS011;10667;51.056;3.732;2022-08-21T11:07:26;7.68;;;2.05;;
21018;SDS011;10667;51.056;3.732;2022-08-21T11:09:58;9.18;;;2.60;;
21018;SDS011;10667;51.056;3.732;2022-08-21T11:12:42;8.35;;;2.05;;
21018;SDS011;10667;51.056;3.732;2022-08-21T11:15:17;14.52;;;2.72;;
21018;SDS011;10667;51.056;3.732;2022-08-21T11:18:00;8.18;;;2.50;;
21018;SDS011;10667;51.056;3.732;2022-08-21T11:20:52;12.40;;;2.50;;
21018;SDS011;10667;51.056;3.732;2022-08-21T11:23:37;11.23;;;2.10;;
21018;SDS011;10667;51.056;3.732;2022-08-21T11:26:14;8.40;;;2.22;;
21018;SDS011;10667;51.056;3.732;2022-08-21T11:28:54;13.25;;;2.75;;
21018;SDS011;10667;51.056;3.732;2022-08-21T11:40:06;15.00;;;3.00;;
21018;SDS011;10667;51.056;3.732;2022-08-21T11:45:35;8.45;;;2.33;;
21018;SDS011;10667;51.056;3.732;2022-08-21T11:48:34;10.98;;;2.40;;
21018;SDS011;10667;51.056;3.732;2022-08-21T11:51:11;8.05;;;1.80;;
21018;SDS011;10667;51.056;3.732;2022-08-21T11:53:47;12.80;;;2.28;;
21018;SDS011;10667;51.056;3.732;2022-08-21T11:59:45;9.25;;;2.35;;
21018;SDS011;10667;51.056;3.732;2022-08-21T12:02:23;8.85;;;1.90;;
21018;SDS011;10667;51.056;3.732;2022-08-21T12:04:59;8.35;;;2.15;;
21018;SDS011;10667;51.056;3.732;2022-08-21T12:10:00;14.52;;;3.25;;
21018;SDS011;10667;51.056;3.732;2022-08-21T12:12:29;10.52;;;2.47;;
21018;SDS011;10667;51.056;3.732;2022-08-21T12:15:11;13.18;;;2.72;;
21018;SDS011;10667;51.056;3.732;2022-08-21T12:17:50;9.48;;;2.45;;
21018;SDS011;10667;51.056;3.732;2022-08-21T12:20:43;11.77;;;2.38;;
21018;SDS011;10667;51.056;3.732;2022-08-21T12:23:43;7.68;;;2.40;;
21018;SDS011;10667;51.056;3.732;2022-08-21T12:29:02;9.77;;;1.80;;
21018;SDS011;10667;51.056;3.732;2022-08-21T12:31:52;8.05;;;1.92;;
21018;SDS011;10667;51.056;3.732;2022-08-21T12:34:22;10.63;;;2.67;;
21018;SDS011;10667;51.056;3.732;2022-08-21T12:36:56;6.97;;;2.17;;
21018;SDS011;10667;51.056;3.732;2022-08-21T12:39:26;8.50;;;1.95;;
21018;SDS011;10667;51.056;3.732;2022-08-21T12:44:44;10.48;;;2.70;;
21018;SDS011;10667;51.056;3.732;2022-08-21T12:47:43;12.00;;;3.15;;
21018;SDS011;10667;51.056;3.732;2022-08-21T12:50:16;9.95;;;2.28;;
21018;SDS011;10667;51.056;3.732;2022-08-21T12:55:30;10.27;;;2.58;;
21018;SDS011;10667;51.056;3.732;2022-08-21T12:57:56;9.00;;;2.40;;
21018;SDS011;10667;51.056;3.732;2022-08-21T13:00:23;10.43;;;2.88;;
21018;SDS011;10667;51.056;3.732;2022-08-21T13:02:51;10.52;;;2.22;;
21018;SDS011;10667;51.056;3.732;2022-08-21T13:05:33;9.48;;;2.80;;
21018;SDS011;10667;51.056;3.732;2022-08-21T13:08:04;9.93;;;2.80;;
21018;SDS011;10667;51.056;3.732;2022-08-21T13:10:33;8.93;;;2.17;;
21018;SDS011;10667;51.056;3.732;2022-08-21T13:13:01;7.43;;;2.15;;
21018;SDS011;10667;51.056;3.732;2022-08-21T13:15:35;7.65;;;2.13;;
21018;SDS011;10667;51.056;3.732;2022-08-21T13:18:04;7.75;;;2.00;;
21018;SDS011;10667;51.056;3.732;2022-08-21T13:20:32;12.98;;;2.88;;
21018;SDS011;10667;51.056;3.732;2022-08-21T13:23:00;11.48;;;2.67;;
21018;SDS011;10667;51.056;3.732;2022-08-21T13:25:28;7.80;;;2.15;;
21018;SDS011;10667;51.056;3.732;2022-08-21T13:30:27;7.70;;;1.88;;
21018;SDS011;10667;51.056;3.732;2022-08-21T13:32:57;8.75;;;2.20;;
21018;SDS011;10667;51.056;3.732;2022-08-21T13:35:34;9.82;;;2.35;;
21018;SDS011;10667;51.056;3.732;2022-08-21T13:38:10;7.20;;;2.08;;
21018;SDS011;10667;51.056;3.732;2022-08-21T13:40:45;9.43;;;2.35;;
21018;SDS011;10667;51.056;3.732;2022-08-21T13:43:15;7.88;;;2.00;;
21018;SDS011;10667;51.056;3.732;2022-08-21T13:45:50;9.70;;;2.08;;
21018;SDS011;10667;51.056;3.732;2022-08-21T13:48:18;9.35;;;2.10;;
21018;SDS011;10667;51.056;3.732;2022-08-21T13:50:46;9.27;;;2.63;;
21018;SDS011;10667;51.056;3.732;2022-08-21T13:53:20;12.23;;;2.47;;
21018;SDS011;10667;51.056;3.732;2022-08-21T13:55:56;8.13;;;2.10;;
21018;SDS011;10667;51.056;3.732;2022-08-21T13:58:33;9.43;;;2.20;;
21018;SDS011;10667;51.056;3.732;2022-08-21T14:04:19;9.27;;;2.60;;
21018;SDS011;10667;51.056;3.732;2022-08-21T14:06:43;8.73;;;2.38;;
21018;SDS011;10667;51.056;3.732;2022-08-21T14:09:20;10.40;;;2.33;;
21018;SDS011;10667;51.056;3.732;2022-08-21T14:12:11;12.88;;;2.30;;
21018;SDS011;10667;51.056;3.732;2022-08-21T14:14:40;9.30;;;2.78;;
21018;SDS011;10667;51.056;3.732;2022-08-21T14:17:07;12.65;;;2.63;;
21018;SDS011;10667;51.056;3.732;2022-08-21T14:30:20;10.32;;;2.88;;
21018;SDS011;10667;51.056;3.732;2022-08-21T14:32:51;10.50;;;2.70;;
21018;SDS011;10667;51.056;3.732;2022-08-21T14:35:18;12.70;;;2.65;;
21018;SDS011;10667;51.056;3.732;2022-08-21T14:37:46;9.30;;;2.83;;
21018;SDS011;10667;51.056;3.732;2022-08-21T14:40:15;10.98;;;2.72;;
21018;SDS011;10667;51.056;3.732;2022-08-21T14:42:42;7.47;;;2.47;;
21018;SDS011;10667;51.056;3.732;2022-08-21T14:45:20;10.40;;;2.80;;
21018;SDS011;10667;51.056;3.732;2022-08-21T14:47:51;11.02;;;2.58;;
21018;SDS011;10667;51.056;3.732;2022-08-21T14:50:17;13.05;;;3.05;;
21018;SDS011;10667;51.056;3.732;2022-08-21T14:52:43;14.20;;;2.88;;
21018;SDS011;10667;51.056;3.732;2022-08-21T14:55:10;11.95;;;2.50;;
21018;SDS011;10667;51.056;3.732;2022-08-21T14:57:39;14.70;;;3.13;;
21018;SDS011;10667;51.056;3.732;2022-08-21T15:00:08;8.88;;;2.35;;
21018;SDS011;10667;51.056;3.732;2022-08-21T15:02:35;12.70;;;3.10;;
21018;SDS011;10667;51.056;3.732;2022-08-21T15:05:01;8.85;;;2.65;;
21018;SDS011;10667;51.056;3.732;2022-08-21T15:07:27;13.93;;;2.75;;
21018;SDS011;10667;51.056;3.732;2022-08-21T15:09:53;8.50;;;2.33;;
21018;SDS011;10667;51.056;3.732;2022-08-21T15:12:19;12.63;;;3.63;;
21018;SDS011;10667;51.056;3.732;2022-08-21T15:14:44;13.18;;;3.30;;
21018;SDS011;10667;51.056;3.732;2022-08-21T15:17:11;8.18;;;2.45;;
21018;SDS011;10667;51.056;3.732;2022-08-21T15:19:37;9.00;;;3.13;;
21018;SDS011;10667;51.056;3.732;2022-08-21T15:22:03;8.43;;;2.80;;
21018;SDS011;10667;51.056;3.732;2022-08-21T15:24:29;9.55;;;2.50;;
21018;SDS011;10667;51.056;3.732;2022-08-21T15:26:55;16.27;;;2.90;;
21018;SDS011;10667;51.056;3.732;2022-08-21T15:29:24;13.88;;;2.53;;
21018;SDS011;10667;51.056;3.732;2022-08-21T15:31:51;13.07;;;2.92;;
21018;SDS011;10667;51.056;3.732;2022-08-21T15:34:19;10.20;;;2.90;;
21018;SDS011;10667;51.056;3.732;2022-08-21T15:36:45;14.23;;;3.40;;
21018;SDS011;10667;51.056;3.732;2022-08-21T15:39:11;10.40;;;2.67;;
21018;SDS011;10667;51.056;3.732;2022-08-21T15:41:37;10.25;;;2.47;;
21018;SDS011;10667;51.056;3.732;2022-08-21T15:44:02;11.10;;;2.38;;
21018;SDS011;10667;51.056;3.732;2022-08-21T15:46:28;6.65;;;2.00;;
21018;SDS011;10667;51.056;3.732;2022-08-21T15:48:54;14.70;;;3.45;;
21018;SDS011;10667;51.056;3.732;2022-08-21T15:51:20;11.35;;;2.92;;
21018;SDS011;10667;51.056;3.732;2022-08-21T15:53:45;12.15;;;2.60;;
21018;SDS011;10667;51.056;3.732;2022-08-21T15:58:47;8.35;;;2.55;;
21018;SDS011;10667;51.056;3.732;2022-08-21T16:01:14;10.02;;;2.70;;
21018;SDS011;10667;51.056;3.732;2022-08-21T16:03:41;10.27;;;3.25;;
21018;SDS011;10667;51.056;3.732;2022-08-21T16:06:09;8.20;;;3.42;;
21018;SDS011;10667;51.056;3.732;2022-08-21T16:08:35;8.73;;;2.92;;
21018;SDS011;10667;51.056;3.732;2022-08-21T16:11:01;11.00;;;3.00;;
21018;SDS011;10667;51.056;3.732;2022-08-21T16:13:27;11.65;;;2.90;;
21018;SDS011;10667;51.056;3.732;2022-08-21T16:15:58;10.77;;;2.50;;
21018;SDS011;10667;51.056;3.732;2022-08-21T16:18:24;13.00;;;2.72;;
21018;SDS011;10667;51.056;3.732;2022-08-21T16:20:51;8.07;;;2.67;;
21018;SDS011;10667;51.056;3.732;2022-08-21T16:23:17;10.88;;;2.80;;
21018;SDS011;10667;51.056;3.732;2022-08-21T16:25:42;12.38;;;2.78;;
21018;SDS011;10667;51.056;3.732;2022-08-21T16:28:09;9.63;;;2.95;;
21018;SDS011;10667;51.056;3.732;2022-08-21T16:30:38;8.00;;;2.30;;